Time;durP1;ratioP1;P1;durP2;ratioP2;P2;SDS_P1;SDS_P2;PMS_P1;PMS_P2;Temp;Humidity;BMP_temperature;BMP_pressure;BME280_temperature;BME280_humidity;BME280_pressure;Samples;Min_cycle;Max_cycle;Signal;HPM_P1;HPM_P2
2021/03/13 00:01:16;;;;;;;6.50;2.40;;;-7.70;42.10;;;;;;4328325;33;20167;-35
2021/03/13 00:03:42;;;;;;;3.47;1.77;;;-7.70;41.90;;;;;;4327778;33;20071;-36
2021/03/13 00:06:09;;;;;;;6.40;2.33;;;-7.80;42.00;;;;;;4340687;33;20070;-35
2021/03/13 00:08:37;;;;;;;9.37;2.00;;;-7.80;42.00;;;;;;4340374;33;20561;-32
2021/03/13 00:11:09;;;;;;;1.80;0.77;;;-7.90;42.10;;;;;;4328554;33;20159;-33
2021/03/13 00:13:35;;;;;;;2.03;0.50;;;-7.90;42.00;;;;;;4341833;33;20090;-34
2021/03/13 00:16:04;;;;;;;3.33;0.90;;;-7.90;42.00;;;;;;4343059;33;20082;-34
2021/03/13 00:18:32;;;;;;;6.10;1.77;;;-7.90;41.90;;;;;;4331156;33;20145;-33
2021/03/13 00:20:58;;;;;;;8.77;2.50;;;-8.00;41.80;;;;;;4342968;33;20063;-34
2021/03/13 00:23:25;;;;;;;5.23;1.53;;;-8.00;41.80;;;;;;4330815;33;20143;-35
2021/03/13 00:25:52;;;;;;;6.40;2.27;;;-8.10;41.70;;;;;;4331164;33;20074;-35
2021/03/13 00:28:18;;;;;;;3.93;1.70;;;-8.10;41.80;;;;;;4343154;33;20475;-35
2021/03/13 00:30:46;;;;;;;3.70;0.90;;;-8.20;42.10;;;;;;4343363;33;20102;-35
2021/03/13 00:33:19;;;;;;;2.90;1.93;;;-8.20;42.20;;;;;;4356458;32;20427;-33
2021/03/13 00:35:47;;;;;;;2.03;1.17;;;-8.30;42.20;;;;;;4390342;32;20077;-33
2021/03/13 00:38:14;;;;;;;2.60;1.17;;;-8.30;42.50;;;;;;4352241;32;20156;-33
2021/03/13 00:40:41;;;;;;;1.53;0.77;;;-8.30;42.50;;;;;;4376461;32;20513;-35
2021/03/13 00:43:09;;;;;;;6.30;2.23;;;-8.30;42.50;;;;;;4342791;33;20113;-35
2021/03/13 00:45:36;;;;;;;1.30;0.83;;;-8.40;42.40;;;;;;4313532;33;20072;-35
2021/03/13 00:48:03;;;;;;;2.07;0.97;;;-8.40;42.50;;;;;;4301312;33;20079;-35
2021/03/13 00:50:30;;;;;;;5.50;1.73;;;-8.40;42.40;;;;;;4301160;33;20067;-34
2021/03/13 00:52:57;;;;;;;5.07;0.83;;;-8.40;42.30;;;;;;4260222;33;20237;-33
2021/03/13 00:55:24;;;;;;;1.97;1.20;;;-8.40;42.20;;;;;;4284499;33;20515;-33
2021/03/13 00:57:50;;;;;;;5.40;2.03;;;-8.40;42.30;;;;;;4285219;33;20079;-33
2021/03/13 01:00:22;;;;;;;8.33;2.37;;;-8.50;42.30;;;;;;4285402;33;20530;-33
2021/03/13 01:02:49;;;;;;;2.23;1.70;;;-8.50;42.60;;;;;;4284841;33;20069;-34
2021/03/13 01:05:16;;;;;;;4.43;1.43;;;-8.60;42.80;;;;;;4284329;33;20077;-34
2021/03/13 01:07:42;;;;;;;3.67;1.70;;;-8.60;43.00;;;;;;4284258;33;20082;-33
2021/03/13 01:10:21;;;;;;;6.47;2.50;;;-8.70;43.20;;;;;;4295901;33;20075;-33
2021/03/13 01:12:48;;;;;;;5.27;1.23;;;-8.70;43.60;;;;;;4298457;33;20464;-34
2021/03/13 01:15:19;;;;;;;3.10;1.20;;;-8.70;43.70;;;;;;4328182;33;20087;-34
2021/03/13 01:17:46;;;;;;;3.80;1.57;;;-8.70;43.90;;;;;;4342569;33;20070;-33
2021/03/13 01:20:14;;;;;;;3.03;1.03;;;-8.70;44.00;;;;;;4342445;33;20071;-33
2021/03/13 01:22:42;;;;;;;4.27;1.93;;;-8.70;43.90;;;;;;4352505;32;20487;-32
2021/03/13 01:25:10;;;;;;;4.17;0.93;;;-8.60;43.90;;;;;;4360975;32;20138;-34
2021/03/13 01:27:37;;;;;;;6.53;1.80;;;-8.60;43.80;;;;;;4374719;32;20673;-34
2021/03/13 01:30:09;;;;;;;4.10;1.37;;;-8.60;43.50;;;;;;4374466;32;20093;-34
2021/03/13 01:32:35;;;;;;;3.83;0.83;;;-8.50;43.90;;;;;;4362828;32;20598;-34
2021/03/13 01:35:02;;;;;;;1.10;0.63;;;-8.50;43.70;;;;;;4346859;32;20066;-35
2021/03/13 01:37:29;;;;;;;2.97;1.60;;;-8.50;43.70;;;;;;4347264;32;20085;-35
2021/03/13 01:39:55;;;;;;;5.40;1.80;;;-8.40;43.50;;;;;;4371929;32;20518;-35
2021/03/13 01:42:22;;;;;;;4.63;2.07;;;-8.40;43.40;;;;;;4371918;32;20062;-34
2021/03/13 01:44:48;;;;;;;2.00;0.83;;;-8.30;43.40;;;;;;4359685;32;20475;-35
2021/03/13 01:47:23;;;;;;;6.33;2.07;;;-8.30;43.20;;;;;;4371871;32;20518;-34
2021/03/13 01:49:51;;;;;;;3.83;1.75;;;-8.30;43.20;;;;;;4359452;32;20147;-34
2021/03/13 01:52:18;;;;;;;8.83;1.43;;;-8.30;43.10;;;;;;4359055;32;20085;-34
2021/03/13 01:54:48;;;;;;;5.43;2.00;;;-8.40;43.20;;;;;;4372193;32;20055;-34
2021/03/13 01:57:16;;;;;;;7.80;2.83;;;-8.40;43.20;;;;;;4371371;32;20070;-34
2021/03/13 01:59:43;;;;;;;7.97;1.43;;;-8.40;43.40;;;;;;4371749;32;20081;-35
2021/03/13 02:02:11;;;;;;;5.23;1.30;;;-8.50;43.50;;;;;;4358857;32;20097;-34
2021/03/13 02:04:38;;;;;;;3.37;1.10;;;-8.50;43.60;;;;;;4371735;32;20074;-40
2021/03/13 02:07:42;;;;;;;3.77;2.13;;;-8.60;43.70;;;;;;4371439;32;20059;-34
2021/03/13 02:10:15;;;;;;;4.97;1.00;;;-8.60;43.70;;;;;;4359484;32;20155;-35
2021/03/13 02:12:59;;;;;;;11.53;2.03;;;-8.70;43.60;;;;;;4362187;32;20133;-35
2021/03/13 02:15:46;;;;;;;7.00;2.23;;;-8.70;43.70;;;;;;4374966;32;20065;-35
2021/03/13 02:18:53;;;;;;;3.33;0.87;;;-8.70;43.70;;;;;;4376129;32;20120;-35
2021/03/13 02:21:25;;;;;;;5.23;2.07;;;-8.80;43.70;;;;;;4364815;32;20064;-34
2021/03/13 02:24:22;;;;;;;5.73;2.30;;;-8.80;43.70;;;;;;4375373;32;20061;-34
2021/03/13 02:27:21;;;;;;;2.57;0.53;;;-8.80;43.70;;;;;;4374842;32;20139;-35
2021/03/13 02:29:53;;;;;;;6.80;1.67;;;-8.80;43.70;;;;;;4388584;32;20589;-34
2021/03/13 02:32:44;;;;;;;3.83;1.30;;;-8.80;43.70;;;;;;4388877;32;20077;-34
2021/03/13 02:35:29;;;;;;;2.43;0.60;;;-8.80;43.90;;;;;;4363984;32;20533;-34
2021/03/13 02:38:01;;;;;;;3.90;1.20;;;-8.80;44.30;;;;;;4351357;32;20153;-35
2021/03/13 02:40:29;;;;;;;4.10;1.00;;;-8.80;44.50;;;;;;4362513;32;20506;-34
2021/03/13 02:43:04;;;;;;;4.50;2.07;;;-8.80;44.80;;;;;;4328948;33;20074;-34
2021/03/13 02:45:33;;;;;;;3.57;1.10;;;-8.80;45.20;;;;;;4328916;33;20551;-34
2021/03/13 02:48:02;;;;;;;6.17;2.23;;;-8.80;45.10;;;;;;4314171;33;20080;-36
2021/03/13 02:50:29;;;;;;;2.30;1.03;;;-8.80;45.10;;;;;;4314643;33;20142;-35
2021/03/13 02:52:56;;;;;;;5.73;1.80;;;-8.70;45.10;;;;;;4302483;33;20067;-34
2021/03/13 02:55:23;;;;;;;3.90;1.40;;;-8.70;45.00;;;;;;4290243;33;20074;-34
2021/03/13 02:57:52;;;;;;;2.90;1.03;;;-8.70;44.90;;;;;;4290691;33;20711;-34
2021/03/13 03:00:20;;;;;;;5.80;2.03;;;-8.70;44.90;;;;;;4301842;33;20665;-34
2021/03/13 03:02:53;;;;;;;3.13;1.10;;;-8.70;44.80;;;;;;4290328;33;20209;-39
2021/03/13 03:05:19;;;;;;;1.53;0.73;;;-8.70;44.80;;;;;;4326603;33;20094;-34
2021/03/13 03:07:46;;;;;;;7.77;2.37;;;-8.60;44.80;;;;;;4290339;33;20086;-33
2021/03/13 03:10:15;;;;;;;6.23;2.97;;;-8.60;44.80;;;;;;4296840;33;20669;-34
2021/03/13 03:12:43;;;;;;;4.73;1.90;;;-8.60;45.00;;;;;;4296929;33;20066;-34
2021/03/13 03:15:10;;;;;;;5.83;1.37;;;-8.60;45.20;;;;;;4302120;33;20144;-33
2021/03/13 03:17:39;;;;;;;6.50;3.17;;;-8.60;45.30;;;;;;4326413;33;20125;-33
2021/03/13 03:20:09;;;;;;;4.20;1.87;;;-8.60;45.20;;;;;;4328389;33;20150;-34
2021/03/13 03:22:36;;;;;;;2.73;0.73;;;-8.60;45.20;;;;;;4316445;33;20650;-33
2021/03/13 03:25:05;;;;;;;4.97;1.77;;;-8.60;45.10;;;;;;4340498;33;20077;-33
2021/03/13 03:27:32;;;;;;;8.63;1.17;;;-8.60;45.20;;;;;;4328616;33;20096;-35
2021/03/13 03:29:59;;;;;;;3.40;1.37;;;-8.60;45.30;;;;;;4340874;33;20130;-34
2021/03/13 03:32:26;;;;;;;8.40;2.07;;;-8.50;45.30;;;;;;4328260;33;20075;-33
2021/03/13 03:34:52;;;;;;;1.53;0.93;;;-8.50;45.40;;;;;;4328427;33;20620;-33
2021/03/13 03:37:19;;;;;;;1.50;1.27;;;-8.40;45.40;;;;;;4328186;33;20083;-33
2021/03/13 03:39:45;;;;;;;3.60;1.23;;;-8.30;45.50;;;;;;4328149;33;20633;-33
2021/03/13 03:42:12;;;;;;;3.73;0.53;;;-8.20;45.50;;;;;;4326506;33;20080;-35
2021/03/13 03:44:45;;;;;;;4.03;0.67;;;-8.10;45.40;;;;;;4325029;33;20092;-34
2021/03/13 03:47:11;;;;;;;2.40;0.80;;;-8.00;45.60;;;;;;4328155;33;20066;-34
2021/03/13 03:49:41;;;;;;;1.63;1.30;;;-7.80;45.90;;;;;;4340474;33;20063;-35
2021/03/13 03:52:10;;;;;;;4.87;1.57;;;-7.70;46.10;;;;;;4328179;33;20101;-34
2021/03/13 03:54:37;;;;;;;4.50;1.50;;;-7.50;46.60;;;;;;4329142;33;20063;-34
2021/03/13 03:57:09;;;;;;;3.40;1.67;;;-7.30;46.80;;;;;;4316428;33;20071;-35
2021/03/13 03:59:35;;;;;;;5.77;2.30;;;-7.00;46.90;;;;;;4327999;33;20063;-35
2021/03/13 04:02:02;;;;;;;2.67;0.93;;;-6.80;46.70;;;;;;4316584;33;20079;-34
2021/03/13 04:04:29;;;;;;;1.17;0.47;;;-6.60;46.80;;;;;;4340481;33;20146;-34
2021/03/13 04:06:56;;;;;;;4.73;1.23;;;-6.30;46.70;;;;;;4328427;33;20075;-35
2021/03/13 04:09:24;;;;;;;3.73;0.90;;;-6.00;46.50;;;;;;4303540;33;20159;-35
2021/03/13 04:11:51;;;;;;;4.53;1.70;;;-5.70;46.20;;;;;;4328428;33;20078;-34
2021/03/13 04:14:18;;;;;;;1.83;1.07;;;-5.40;45.80;;;;;;4340738;32;20139;-33
2021/03/13 04:16:44;;;;;;;3.30;1.10;;;-5.10;45.70;;;;;;4356604;32;20105;-34
2021/03/13 04:19:11;;;;;;;5.80;0.93;;;-4.80;45.00;;;;;;4357617;32;20587;-37
2021/03/13 04:21:38;;;;;;;2.17;0.60;;;-4.60;44.50;;;;;;4358256;32;20510;-35
2021/03/13 04:24:05;;;;;;;7.30;1.53;;;-4.40;43.80;;;;;;4327892;33;20070;-36
2021/03/13 04:26:32;;;;;;;4.23;1.43;;;-4.10;43.20;;;;;;4316942;33;20059;-34
2021/03/13 04:28:58;;;;;;;5.20;1.53;;;-3.90;42.60;;;;;;4329018;33;20071;-34
2021/03/13 04:31:31;;;;;;;7.97;2.07;;;-3.70;42.00;;;;;;4316091;33;20099;-34
2021/03/13 04:34:00;;;;;;;3.53;1.17;;;-3.60;41.30;;;;;;4317247;33;20104;-34
2021/03/13 04:36:30;;;;;;;2.70;1.13;;;-3.40;41.00;;;;;;4340635;33;20646;-33
2021/03/13 04:38:58;;;;;;;1.90;1.30;;;-3.20;40.60;;;;;;4340782;32;20055;-33
2021/03/13 04:41:25;;;;;;;10.27;1.40;;;-3.00;40.20;;;;;;4355734;32;20157;-34
2021/03/13 04:43:52;;;;;;;2.40;0.90;;;-2.90;39.40;;;;;;4345778;32;20077;-34
2021/03/13 04:46:20;;;;;;;3.27;1.30;;;-2.80;39.10;;;;;;4358037;32;20096;-34
2021/03/13 04:48:47;;;;;;;4.40;1.33;;;-2.60;38.60;;;;;;4358532;32;20062;-35
2021/03/13 04:51:14;;;;;;;3.73;1.40;;;-2.50;38.30;;;;;;4358594;32;20093;-35
2021/03/13 04:53:41;;;;;;;8.87;1.53;;;-2.40;37.80;;;;;;4345786;32;20069;-34
2021/03/13 04:56:08;;;;;;;6.07;2.20;;;-2.30;37.50;;;;;;4333570;32;20167;-34
2021/03/13 04:58:34;;;;;;;2.60;1.37;;;-2.20;37.10;;;;;;4371247;32;20602;-33
2021/03/13 05:01:01;;;;;;;5.07;1.33;;;-2.10;36.60;;;;;;4357140;32;20188;-34
2021/03/13 05:03:27;;;;;;;6.00;2.10;;;-2.00;36.40;;;;;;4391566;32;20096;-35
2021/03/13 05:05:54;;;;;;;8.57;2.27;;;-1.90;35.50;;;;;;4379299;32;20140;-34
2021/03/13 05:08:20;;;;;;;3.20;1.40;;;-1.90;35.20;;;;;;4390749;32;20477;-34
2021/03/13 05:10:47;;;;;;;10.63;2.57;;;-1.80;35.20;;;;;;4360129;32;20104;-34
2021/03/13 05:13:13;;;;;;;3.63;1.83;;;-1.70;35.10;;;;;;4372912;32;20550;-35
2021/03/13 05:15:40;;;;;;;4.70;1.77;;;-1.70;34.90;;;;;;4360286;32;20681;-34
2021/03/13 05:18:07;;;;;;;8.17;1.23;;;-1.50;34.80;;;;;;4360731;32;20174;-34
2021/03/13 05:20:33;;;;;;;8.63;1.37;;;-1.40;34.80;;;;;;4373300;32;20473;-36
2021/03/13 05:23:00;;;;;;;8.10;2.60;;;-1.20;34.60;;;;;;4360224;32;20073;-37
2021/03/13 05:25:26;;;;;;;3.70;1.77;;;-0.90;34.40;;;;;;4360308;32;20548;-34
2021/03/13 05:27:53;;;;;;;6.87;2.07;;;-0.70;34.30;;;;;;4360461;32;20097;-35
2021/03/13 05:30:22;;;;;;;3.73;1.20;;;-0.50;34.00;;;;;;4357354;32;20139;-36
2021/03/13 05:32:49;;;;;;;9.03;2.10;;;-0.30;33.80;;;;;;4358292;32;20522;-35
2021/03/13 05:35:16;;;;;;;6.93;2.43;;;0.00;33.10;;;;;;4357931;32;20075;-36
2021/03/13 05:37:42;;;;;;;4.37;1.80;;;0.20;32.30;;;;;;4345640;32;20195;-35
2021/03/13 05:40:10;;;;;;;9.33;1.83;;;0.30;31.90;;;;;;4333777;32;20466;-38
2021/03/13 05:42:37;;;;;;;8.67;2.03;;;0.40;31.20;;;;;;4370835;32;20089;-35
2021/03/13 05:45:06;;;;;;;7.97;2.37;;;0.50;30.50;;;;;;4360836;32;20157;-35
2021/03/13 05:47:34;;;;;;;6.07;2.20;;;0.50;30.20;;;;;;4360332;32;20066;-36
2021/03/13 05:50:10;;;;;;;6.50;1.97;;;0.40;30.00;;;;;;4360224;32;20517;-36
2021/03/13 05:52:38;;;;;;;5.27;2.63;;;0.40;30.00;;;;;;4360306;32;20228;-35
2021/03/13 05:55:09;;;;;;;7.77;2.37;;;0.40;29.90;;;;;;4360442;32;20246;-34
2021/03/13 05:57:36;;;;;;;12.07;2.37;;;0.50;30.00;;;;;;4360219;32;20210;-36
2021/03/13 06:00:07;;;;;;;15.90;2.90;;;0.50;29.80;;;;;;4315135;33;20063;-36
2021/03/13 06:02:35;;;;;;;12.67;3.17;;;0.60;29.70;;;;;;4327771;33;20097;-36
2021/03/13 06:05:02;;;;;;;15.83;3.80;;;0.60;29.60;;;;;;4291599;33;20075;-34
2021/03/13 06:07:29;;;;;;;10.93;2.70;;;0.70;29.50;;;;;;4317888;33;20220;-38
2021/03/13 06:09:57;;;;;;;9.13;1.97;;;0.70;29.30;;;;;;4330562;32;20090;-36
2021/03/13 06:12:24;;;;;;;20.03;1.63;;;0.70;29.40;;;;;;4330190;33;20090;-35
2021/03/13 06:14:52;;;;;;;19.60;2.93;;;0.80;29.40;;;;;;4312669;33;20254;-36
2021/03/13 06:17:22;;;;;;;7.33;0.93;;;0.90;29.60;;;;;;4301221;33;20281;-36
2021/03/13 06:19:58;;;;;;;4.03;1.60;;;1.00;29.40;;;;;;4301512;33;20071;-34
2021/03/13 06:22:38;;;;;;;16.87;2.90;;;1.20;29.10;;;;;;4289036;33;20059;-36
2021/03/13 06:25:19;;;;;;;5.60;2.40;;;1.30;29.00;;;;;;4312899;33;20091;-37
2021/03/13 06:28:08;;;;;;;12.87;2.93;;;1.30;28.50;;;;;;4300885;33;20126;-36
2021/03/13 06:30:50;;;;;;;9.13;1.97;;;1.40;28.60;;;;;;4311036;33;20088;-35
2021/03/13 06:33:31;;;;;;;7.10;1.47;;;1.50;28.60;;;;;;4342394;33;20047;-35
2021/03/13 06:36:05;;;;;;;27.77;5.87;;;1.60;28.10;;;;;;4342679;33;20555;-36
2021/03/13 06:38:36;;;;;;;12.90;3.35;;;1.60;27.70;;;;;;4349956;32;20550;-37
2021/03/13 06:41:17;;;;;;;6.53;2.27;;;1.60;27.30;;;;;;4344500;32;20228;-33
2021/03/13 06:43:47;;;;;;;4.23;2.13;;;1.40;27.50;;;;;;4332668;32;20077;-36
2021/03/13 06:46:35;;;;;;;8.73;3.03;;;1.30;27.30;;;;;;4357019;32;20089;-35
2021/03/13 06:49:02;;;;;;;9.57;2.40;;;1.10;27.70;;;;;;4356858;32;20070;-36
2021/03/13 06:51:38;;;;;;;15.53;2.80;;;1.10;27.80;;;;;;4349013;32;20066;-35
2021/03/13 06:54:13;;;;;;;11.53;2.43;;;1.00;28.00;;;;;;4388915;32;20070;-34
2021/03/13 06:56:43;;;;;;;15.25;2.47;;;1.00;28.00;;;;;;4389602;32;20076;-36
2021/03/13 06:59:35;;;;;;;11.63;2.80;;;1.10;28.00;;;;;;4387489;32;20049;-36
2021/03/13 07:02:06;;;;;;;12.57;2.67;;;1.10;27.70;;;;;;4387466;32;20518;-37
2021/03/13 07:04:45;;;;;;;13.17;2.50;;;1.10;27.90;;;;;;4387595;32;20058;-37
2021/03/13 07:07:29;;;;;;;11.47;3.27;;;1.10;27.90;;;;;;4332313;32;20081;-36
2021/03/13 07:09:57;;;;;;;14.87;3.00;;;1.10;27.90;;;;;;4344344;32;20137;-36
2021/03/13 07:12:29;;;;;;;7.33;2.87;;;1.10;28.00;;;;;;4344259;32;20714;-35
2021/03/13 07:15:11;;;;;;;12.50;3.40;;;1.10;27.80;;;;;;4344405;32;20062;-36
2021/03/13 07:17:41;;;;;;;14.77;2.40;;;1.20;28.20;;;;;;4335092;32;20521;-37
2021/03/13 07:20:08;;;;;;;6.17;2.43;;;1.40;28.40;;;;;;4288019;33;20543;-38
2021/03/13 07:22:36;;;;;;;15.73;3.37;;;1.50;27.60;;;;;;4299859;33;20091;-36
2021/03/13 07:25:02;;;;;;;11.80;4.23;;;1.50;27.80;;;;;;4312294;33;20148;-38
2021/03/13 07:27:30;;;;;;;7.50;2.20;;;1.50;27.80;;;;;;4311865;33;20074;-36
2021/03/13 07:29:57;;;;;;;18.37;3.80;;;1.50;28.00;;;;;;4300707;33;20079;-37
2021/03/13 07:32:25;;;;;;;22.17;2.47;;;1.50;28.10;;;;;;4288066;33;20076;-37
2021/03/13 07:34:57;;;;;;;20.27;5.00;;;1.60;28.10;;;;;;4288294;33;20196;-36
2021/03/13 07:37:24;;;;;;;12.57;3.43;;;1.60;28.10;;;;;;4300446;33;20074;-36
2021/03/13 07:39:51;;;;;;;20.57;3.60;;;1.60;27.80;;;;;;4288032;33;20071;-36
2021/03/13 07:42:19;;;;;;;9.13;2.87;;;1.60;28.00;;;;;;4276088;33;20525;-35
2021/03/13 07:44:47;;;;;;;9.40;3.40;;;1.70;28.00;;;;;;4324069;32;20086;-38
2021/03/13 07:47:17;;;;;;;6.83;2.37;;;1.70;28.00;;;;;;4356390;32;20066;-35
2021/03/13 07:49:44;;;;;;;21.90;4.17;;;1.70;28.00;;;;;;4356613;32;20604;-35
2021/03/13 07:52:12;;;;;;;13.13;3.60;;;1.60;28.10;;;;;;4342177;32;20498;-37
2021/03/13 07:54:45;;;;;;;7.27;2.90;;;1.50;28.10;;;;;;4343684;32;20063;-36
2021/03/13 07:57:12;;;;;;;19.27;3.73;;;1.40;28.50;;;;;;4356466;32;20081;-36
2021/03/13 07:59:43;;;;;;;29.23;4.30;;;1.40;28.50;;;;;;4343919;32;20112;-35
2021/03/13 08:02:31;;;;;;;6.17;1.90;;;1.40;28.70;;;;;;4355769;32;20511;-36
2021/03/13 08:05:03;;;;;;;10.70;2.47;;;1.40;28.70;;;;;;4344490;32;20055;-36
2021/03/13 08:07:50;;;;;;;12.00;2.93;;;1.50;28.60;;;;;;4344087;32;20063;-35
2021/03/13 08:10:53;;;;;;;4.00;1.17;;;1.60;28.60;;;;;;4356562;32;20062;-36
2021/03/13 08:13:28;;;;;;;7.10;1.63;;;1.70;28.40;;;;;;4341046;33;20162;-36
2021/03/13 08:16:18;;;;;;;12.67;2.63;;;1.90;28.50;;;;;;4329155;33;20086;-36
2021/03/13 08:18:53;;;;;;;19.83;3.67;;;2.10;28.40;;;;;;4317162;33;20096;-36
2021/03/13 08:21:19;;;;;;;6.32;1.55;;;2.30;28.20;;;;;;4341202;33;20055;-36
2021/03/13 08:23:49;;;;;;;11.47;2.80;;;2.40;28.10;;;;;;4352217;32;20128;-37
2021/03/13 08:26:35;;;;;;;4.50;1.77;;;2.50;27.90;;;;;;4344121;32;20066;-36
2021/03/13 08:29:02;;;;;;;;;;;2.60;27.90;;;;;;4356964;32;20085;-37
2021/03/13 08:31:32;;;;;;;14.33;2.60;;;2.70;27.70;;;;;;4344022;32;19985;-36
2021/03/13 08:34:03;;;;;;;5.97;1.73;;;2.80;27.60;;;;;;4356769;32;20145;-38
2021/03/13 08:36:31;;;;;;;5.80;1.80;;;3.00;27.60;;;;;;4358902;32;20069;-37
2021/03/13 08:38:59;;;;;;;6.80;2.23;;;3.00;27.10;;;;;;4359116;32;20070;-36
2021/03/13 08:41:44;;;;;;;8.47;1.47;;;3.00;27.00;;;;;;4346792;32;20074;-38
2021/03/13 08:44:19;;;;;;;11.47;2.27;;;2.70;27.10;;;;;;4358538;32;20136;-37
2021/03/13 08:46:56;;;;;;;12.43;2.77;;;2.50;27.40;;;;;;4371564;32;20065;-36
2021/03/13 08:49:40;;;;;;;8.70;1.97;;;2.40;27.70;;;;;;4393154;32;20195;-36
2021/03/13 08:52:10;;;;;;;6.43;1.77;;;2.20;27.90;;;;;;4406400;32;20080;-37
2021/03/13 08:54:48;;;;;;;12.47;2.03;;;1.90;28.00;;;;;;4406155;32;20065;-39
2021/03/13 08:57:28;;;;;;;14.83;2.43;;;1.70;28.50;;;;;;4406172;32;20061;-37
2021/03/13 08:59:55;;;;;;;7.10;2.03;;;1.60;28.90;;;;;;4373000;32;20101;-36
2021/03/13 09:02:33;;;;;;;3.80;2.47;;;1.50;28.90;;;;;;4342814;32;20146;-36
2021/03/13 09:05:15;;;;;;;13.00;2.40;;;1.40;29.10;;;;;;4331283;33;20070;-36
2021/03/13 09:07:46;;;;;;;7.07;2.27;;;1.40;29.10;;;;;;4330678;33;20119;-37
2021/03/13 09:10:13;;;;;;;22.00;2.13;;;1.30;29.10;;;;;;4313510;33;20165;-36
2021/03/13 09:12:42;;;;;;;4.83;1.53;;;1.40;29.40;;;;;;4313788;33;20147;-35
2021/03/13 09:15:10;;;;;;;6.20;1.80;;;1.50;29.50;;;;;;4302003;33;20565;-36
2021/03/13 09:17:37;;;;;;;12.17;2.67;;;1.60;29.50;;;;;;4313955;33;20099;-36
2021/03/13 09:20:10;;;;;;;35.83;4.60;;;1.80;29.30;;;;;;4313361;33;20547;-36
2021/03/13 09:22:39;;;;;;;7.63;2.07;;;2.00;29.40;;;;;;4301528;33;20059;-37
2021/03/13 09:25:14;;;;;;;23.13;2.67;;;2.10;29.10;;;;;;4313601;33;20071;-36
2021/03/13 09:27:40;;;;;;;11.38;3.55;;;2.20;28.80;;;;;;4313690;33;20523;-37
2021/03/13 09:30:20;;;;;;;15.30;4.50;;;2.20;28.70;;;;;;4295922;33;20087;-37
2021/03/13 09:32:48;;;;;;;7.57;2.47;;;2.20;28.70;;;;;;4288514;33;20552;-37
2021/03/13 09:35:16;;;;;;;6.33;2.47;;;2.20;28.80;;;;;;4274902;33;20078;-36
2021/03/13 09:37:43;;;;;;;8.83;2.67;;;2.10;28.90;;;;;;4296430;33;20095;-38
2021/03/13 09:40:15;;;;;;;6.97;2.47;;;2.00;28.90;;;;;;4303893;32;20051;-36
2021/03/13 09:42:46;;;;;;;8.80;2.73;;;2.00;29.10;;;;;;4345329;32;20735;-36
2021/03/13 09:45:38;;;;;;;20.10;2.43;;;1.90;29.30;;;;;;4344752;32;20188;-37
2021/03/13 09:48:07;;;;;;;7.20;2.60;;;2.00;29.70;;;;;;4344209;32;20615;-37
2021/03/13 09:50:35;;;;;;;16.60;3.80;;;2.10;29.50;;;;;;4357924;32;20051;-38
2021/03/13 09:53:03;;;;;;;7.63;2.40;;;2.20;29.50;;;;;;4345515;32;20074;-37
2021/03/13 09:55:30;;;;;;;8.60;2.97;;;2.20;29.40;;;;;;4344882;32;20196;-39
2021/03/13 09:57:59;;;;;;;7.63;2.27;;;2.30;29.40;;;;;;4357895;32;20125;-37
2021/03/13 10:00:43;;;;;;;3.87;1.70;;;2.40;29.50;;;;;;4363384;32;20051;-38
2021/03/13 10:03:17;;;;;;;6.80;2.27;;;2.40;29.40;;;;;;4375890;32;20058;-36
2021/03/13 10:05:43;;;;;;;9.20;2.73;;;2.50;29.60;;;;;;4376319;32;20053;-38
2021/03/13 10:08:14;;;;;;;11.97;2.37;;;2.60;29.60;;;;;;4389761;32;20054;-36
2021/03/13 10:10:45;;;;;;;8.97;2.53;;;2.70;29.70;;;;;;4376785;32;20145;-37
2021/03/13 10:13:14;;;;;;;6.17;1.97;;;2.90;29.80;;;;;;4363867;32;20058;-36
2021/03/13 10:15:41;;;;;;;6.17;1.67;;;3.20;29.70;;;;;;4390396;32;20088;-38
2021/03/13 10:18:14;;;;;;;5.73;1.33;;;3.30;29.50;;;;;;4390113;32;20537;-38
2021/03/13 10:20:48;;;;;;;11.17;2.70;;;3.50;29.50;;;;;;4376597;32;20062;-36
2021/03/13 10:23:31;;;;;;;6.67;1.73;;;3.70;29.50;;;;;;4390102;32;20082;-36
2021/03/13 10:26:12;;;;;;;9.37;1.80;;;3.80;29.30;;;;;;4375739;32;20069;-35
2021/03/13 10:28:44;;;;;;;8.57;1.57;;;4.00;29.00;;;;;;4390276;32;20058;-36
2021/03/13 10:31:12;;;;;;;17.10;2.53;;;4.00;28.90;;;;;;4376245;32;20082;-35
2021/03/13 10:33:44;;;;;;;9.90;2.33;;;4.10;29.00;;;;;;4375663;32;20200;-36
2021/03/13 10:36:13;;;;;;;3.60;1.50;;;4.10;28.90;;;;;;4375765;32;20616;-35
2021/03/13 10:38:44;;;;;;;6.70;1.80;;;4.10;29.00;;;;;;4363530;32;20494;-35
2021/03/13 10:41:14;;;;;;;7.30;2.67;;;4.10;28.90;;;;;;4375875;32;20096;-35
2021/03/13 10:43:44;;;;;;;8.97;2.50;;;4.20;28.70;;;;;;4389995;32;20058;-34
2021/03/13 10:46:17;;;;;;;7.50;2.47;;;4.20;28.70;;;;;;4389804;32;20525;-34
2021/03/13 10:48:44;;;;;;;8.83;3.47;;;4.20;28.70;;;;;;4376293;32;20139;-34
2021/03/13 10:51:41;;;;;;;8.40;3.63;;;4.20;28.80;;;;;;4389410;32;20208;-34
2021/03/13 10:54:29;;;;;;;13.90;3.80;;;4.10;28.80;;;;;;4363979;32;20089;-36
2021/03/13 10:56:57;;;;;;;7.23;3.17;;;4.10;28.90;;;;;;4388915;32;20099;-37
2021/03/13 10:59:33;;;;;;;10.80;4.63;;;4.00;28.80;;;;;;4363198;32;20070;-37
2021/03/13 11:02:00;;;;;;;6.33;3.13;;;4.00;29.10;;;;;;4375118;32;20054;-36
2021/03/13 11:04:27;;;;;;;15.87;4.10;;;4.00;29.10;;;;;;4375426;32;20077;-38
2021/03/13 11:06:54;;;;;;;6.73;3.73;;;4.00;29.10;;;;;;4356693;32;20062;-36
2021/03/13 11:09:24;;;;;;;12.77;5.90;;;4.00;29.10;;;;;;4348576;32;20062;-35
2021/03/13 11:11:51;;;;;;;13.60;5.17;;;4.00;29.10;;;;;;4356194;32;20554;-36
2021/03/13 11:14:18;;;;;;;11.17;4.23;;;3.90;29.10;;;;;;4356509;32;20100;-35
2021/03/13 11:16:45;;;;;;;7.87;3.23;;;3.90;29.30;;;;;;4344144;32;20572;-35
2021/03/13 11:19:14;;;;;;;13.97;3.20;;;3.90;29.40;;;;;;4344108;32;20086;-36
2021/03/13 11:21:41;;;;;;;18.03;3.37;;;3.80;29.30;;;;;;4328950;33;20073;-37
2021/03/13 11:24:08;;;;;;;13.37;3.20;;;3.80;29.40;;;;;;4329153;33;20582;-38
2021/03/13 11:26:34;;;;;;;11.73;2.87;;;3.70;29.70;;;;;;4329174;33;20550;-35
2021/03/13 11:29:01;;;;;;;9.03;1.80;;;3.60;29.80;;;;;;4341535;33;20059;-37
2021/03/13 11:31:28;;;;;;;4.40;1.60;;;3.70;29.80;;;;;;4341585;33;20082;-35
2021/03/13 11:33:54;;;;;;;7.13;1.43;;;3.60;29.40;;;;;;4341952;33;20066;-35
2021/03/13 11:36:21;;;;;;;10.40;1.77;;;3.60;29.40;;;;;;4341970;33;20086;-37
2021/03/13 11:38:48;;;;;;;6.20;1.67;;;3.50;29.70;;;;;;4341060;33;20524;-36
2021/03/13 11:41:15;;;;;;;4.00;1.57;;;3.40;30.00;;;;;;4341459;33;20066;-35
2021/03/13 11:43:42;;;;;;;5.27;0.80;;;3.40;29.50;;;;;;4335451;32;20553;-36
2021/03/13 11:46:10;;;;;;;2.13;1.00;;;3.30;29.70;;;;;;4371264;32;20050;-36
2021/03/13 11:48:37;;;;;;;1.57;0.90;;;3.20;29.90;;;;;;4358945;32;20576;-34
2021/03/13 11:51:04;;;;;;;4.00;1.07;;;3.20;29.80;;;;;;4358781;32;20089;-35
2021/03/13 11:53:30;;;;;;;6.37;1.63;;;3.10;30.00;;;;;;4358396;32;20485;-36
2021/03/13 11:55:57;;;;;;;4.87;1.17;;;3.00;30.30;;;;;;4343566;32;20526;-35
2021/03/13 11:58:25;;;;;;;5.87;1.13;;;2.90;30.40;;;;;;4346066;32;20117;-36
2021/03/13 12:00:52;;;;;;;5.47;2.33;;;2.90;30.50;;;;;;4370143;32;20150;-38
2021/03/13 12:03:19;;;;;;;13.43;3.63;;;2.90;30.40;;;;;;4357987;32;20133;-37
2021/03/13 12:05:45;;;;;;;11.60;2.00;;;2.90;30.20;;;;;;4370528;32;20085;-37
2021/03/13 12:08:12;;;;;;;6.03;0.93;;;2.90;30.30;;;;;;4358202;32;20062;-36
2021/03/13 12:10:39;;;;;;;10.50;1.73;;;2.80;30.40;;;;;;4316638;33;20099;-36
2021/03/13 12:13:06;;;;;;;6.33;1.03;;;2.80;30.50;;;;;;4328570;33;20654;-36
2021/03/13 12:15:32;;;;;;;9.00;1.10;;;2.80;30.40;;;;;;4316926;33;20161;-37
2021/03/13 12:17:59;;;;;;;3.80;0.70;;;2.90;30.60;;;;;;4316715;33;20063;-36
2021/03/13 12:20:26;;;;;;;9.60;1.30;;;2.90;30.50;;;;;;4329183;33;20056;-38
2021/03/13 12:22:53;;;;;;;7.00;2.10;;;2.90;30.50;;;;;;4329275;33;20598;-37
2021/03/13 12:25:20;;;;;;;5.10;1.57;;;2.90;30.70;;;;;;4316488;33;20071;-36
2021/03/13 12:27:47;;;;;;;9.50;2.93;;;2.90;30.40;;;;;;4341404;32;20059;-37
2021/03/13 12:30:17;;;;;;;9.13;2.07;;;2.90;30.30;;;;;;4358105;32;20078;-35
2021/03/13 12:32:45;;;;;;;2.10;1.20;;;2.90;30.20;;;;;;4334714;32;20564;-39
2021/03/13 12:35:12;;;;;;;20.07;2.23;;;2.90;30.00;;;;;;4345829;32;20073;-38
2021/03/13 12:37:41;;;;;;;9.13;2.20;;;2.80;30.10;;;;;;4345746;32;20063;-37
2021/03/13 12:40:09;;;;;;;8.13;1.80;;;2.80;30.40;;;;;;4358352;32;20162;-38
2021/03/13 12:42:36;;;;;;;11.63;2.30;;;2.80;30.40;;;;;;4357926;32;20066;-36
2021/03/13 12:45:06;;;;;;;14.90;1.80;;;2.60;30.40;;;;;;4333506;32;20605;-40
2021/03/13 12:47:32;;;;;;;12.67;2.03;;;2.50;30.60;;;;;;4356230;32;20058;-37
2021/03/13 12:50:01;;;;;;;3.53;0.80;;;2.50;30.70;;;;;;4376724;32;20499;-38
2021/03/13 12:52:28;;;;;;;2.47;1.17;;;2.40;30.70;;;;;;4390430;32;20567;-36
2021/03/13 12:54:55;;;;;;;7.60;1.17;;;2.40;30.70;;;;;;4372825;32;20071;-37
2021/03/13 12:57:21;;;;;;;8.87;1.10;;;2.30;30.60;;;;;;4348343;32;20081;-38
2021/03/13 12:59:48;;;;;;;13.00;1.37;;;2.20;30.70;;;;;;4342941;33;20121;-38
2021/03/13 13:02:14;;;;;;;6.77;1.50;;;2.10;30.70;;;;;;4330941;33;20050;-39
2021/03/13 13:04:41;;;;;;;20.10;1.33;;;2.10;30.90;;;;;;4330752;33;20506;-37
2021/03/13 13:07:08;;;;;;;18.30;2.17;;;1.90;31.00;;;;;;4330610;33;20089;-37